createdAt,value
2022-09-14T00:01:40.388Z,4.72
2022-09-14T00:04:16.661Z,6.07
2022-09-14T00:06:44.788Z,6.43
2022-09-14T00:09:23.213Z,6.85
2022-09-14T00:11:51.406Z,3.33
2022-09-14T00:14:19.751Z,6.57
2022-09-14T00:16:47.378Z,5.15
2022-09-14T00:19:25.776Z,8.60
2022-09-14T00:21:57.200Z,5.50
2022-09-14T00:24:30.080Z,5.32
2022-09-14T00:26:57.694Z,5.80
2022-09-14T00:29:25.077Z,10.18
2022-09-14T00:31:52.703Z,6.90
2022-09-14T00:34:20.388Z,7.13
2022-09-14T00:36:51.361Z,10.00
2022-09-14T00:39:23.502Z,4.72
2022-09-14T00:41:52.434Z,3.17
2022-09-14T00:44:19.472Z,5.55
2022-09-14T00:46:51.273Z,7.88
2022-09-14T00:49:36.314Z,4.53
2022-09-14T00:52:19.397Z,6.93
2022-09-14T00:54:58.490Z,7.00
2022-09-14T00:57:31.397Z,4.38
2022-09-14T00:59:59.500Z,4.13
2022-09-14T01:02:28.473Z,2.70
2022-09-14T01:04:56.484Z,3.65
2022-09-14T01:08:18.931Z,7.57
2022-09-14T01:15:10.480Z,6.90
2022-09-14T01:18:25.520Z,8.13
2022-09-14T01:21:23.049Z,5.03
2022-09-14T01:24:25.680Z,6.57
2022-09-14T01:26:58.770Z,5.75
2022-09-14T01:29:41.923Z,4.47
2022-09-14T01:32:33.262Z,6.15
2022-09-14T01:35:21.487Z,4.60
2022-09-14T01:38:05.054Z,3.75
2022-09-14T01:40:46.047Z,5.22
2022-09-14T01:43:41.343Z,7.55
2022-09-14T01:46:21.964Z,3.40
2022-09-14T01:48:59.403Z,3.97
2022-09-14T01:51:39.482Z,5.00
2022-09-14T01:54:25.352Z,3.20
2022-09-14T01:57:01.345Z,6.13
2022-09-14T01:59:36.522Z,8.77
2022-09-14T02:02:59.977Z,6.38
2022-09-14T02:05:56.778Z,4.00
2022-09-14T02:08:28.445Z,8.25
2022-09-14T02:10:57.911Z,5.10
2022-09-14T02:13:26.805Z,6.28
2022-09-14T02:15:54.502Z,6.22
2022-09-14T02:18:22.496Z,6.13
2022-09-14T02:21:09.423Z,5.03
2022-09-14T02:23:37.542Z,5.63
2022-09-14T02:26:05.415Z,3.92
2022-09-14T02:28:33.014Z,6.38
2022-09-14T02:32:09.613Z,4.38
2022-09-14T02:35:23.868Z,4.22
2022-09-14T02:38:35.413Z,6.65
2022-09-14T02:41:50.532Z,4.78
2022-09-14T02:44:38.031Z,6.90
2022-09-14T02:47:24.961Z,3.92
2022-09-14T02:50:51.279Z,4.70
2022-09-14T02:53:43.442Z,6.13
2022-09-14T02:56:12.641Z,6.70
2022-09-14T02:58:44.528Z,7.68
2022-09-14T03:01:19.485Z,5.65
2022-09-14T03:03:47.041Z,6.35
2022-09-14T03:06:14.898Z,5.63
2022-09-14T03:08:42.787Z,8.25
2022-09-14T03:11:10.766Z,6.13
2022-09-14T03:13:38.741Z,6.93
2022-09-14T03:16:17.942Z,9.27
2022-09-14T03:18:45.484Z,11.60
2022-09-14T03:21:17.330Z,9.95
2022-09-14T03:23:51.624Z,5.65
2022-09-14T03:26:22.821Z,8.63
2022-09-14T03:28:59.357Z,9.70
2022-09-14T03:31:27.720Z,7.07
2022-09-14T03:33:57.824Z,6.07
2022-09-14T03:36:28.450Z,6.53
2022-09-14T03:38:59.970Z,6.63
2022-09-14T03:41:27.989Z,5.45
2022-09-14T03:43:55.281Z,7.07
2022-09-14T03:46:25.220Z,5.88
2022-09-14T03:48:54.352Z,9.23
2022-09-14T03:51:21.869Z,11.20
2022-09-14T03:53:49.283Z,7.78
2022-09-14T03:56:21.110Z,9.57
2022-09-14T03:58:50.200Z,5.63
2022-09-14T04:01:21.996Z,5.82
2022-09-14T04:03:50.544Z,8.23
2022-09-14T04:06:19.450Z,8.57
2022-09-14T04:08:48.162Z,7.70
2022-09-14T04:11:19.345Z,6.75
2022-09-14T04:13:47.533Z,6.32
2022-09-14T04:16:17.430Z,6.85
2022-09-14T04:18:44.945Z,9.77
2022-09-14T04:21:20.782Z,7.15
2022-09-14T04:24:13.309Z,6.50
2022-09-14T04:26:36.071Z,9.90
2022-09-14T04:29:03.623Z,12.88
2022-09-14T04:31:31.504Z,14.15
2022-09-14T04:33:58.929Z,8.80
2022-09-14T04:36:31.288Z,7.93
2022-09-14T04:39:03.729Z,6.15
2022-09-14T04:41:32.273Z,11.38
2022-09-14T04:44:00.694Z,7.32
2022-09-14T04:46:32.712Z,6.88
2022-09-14T04:48:59.922Z,9.48
2022-09-14T04:51:31.131Z,7.97
2022-09-14T04:54:01.328Z,10.68
2022-09-14T04:56:33.253Z,7.85
2022-09-14T04:59:04.154Z,11.52
2022-09-14T05:01:42.951Z,8.30
2022-09-14T05:04:11.929Z,8.77
2022-09-14T05:06:42.167Z,10.13
2022-09-14T05:09:16.937Z,8.50
2022-09-14T05:11:45.939Z,10.57
2022-09-14T05:14:14.562Z,8.57
2022-09-14T05:16:43.998Z,7.55
2022-09-14T05:19:17.469Z,6.72
2022-09-14T05:21:46.056Z,10.13
2022-09-14T05:24:17.977Z,11.60
2022-09-14T05:26:46.797Z,11.90
2022-09-14T05:29:18.534Z,13.98
2022-09-14T05:31:46.207Z,9.90
2022-09-14T05:34:13.975Z,8.93
2022-09-14T05:36:41.921Z,10.68
2022-09-14T05:39:13.148Z,11.15
2022-09-14T05:41:40.887Z,13.70
2022-09-14T05:44:08.267Z,11.45
2022-09-14T05:46:35.952Z,10.32
2022-09-14T05:49:04.153Z,15.27
2022-09-14T05:51:31.398Z,11.20
2022-09-14T05:54:00.029Z,9.50
2022-09-14T05:56:31.666Z,10.95
2022-09-14T05:59:00.199Z,11.10
2022-09-14T06:01:32.654Z,8.43
2022-09-14T06:04:02.542Z,12.05
2022-09-14T06:06:32.274Z,8.77
2022-09-14T06:09:00.359Z,9.07
2022-09-14T06:11:33.105Z,6.60
2022-09-14T06:14:00.790Z,10.85
2022-09-14T06:16:29.393Z,8.25
2022-09-14T06:18:59.457Z,6.22
2022-09-14T06:21:34.991Z,11.10
2022-09-14T06:24:03.360Z,9.45
2022-09-14T06:26:30.990Z,12.20
2022-09-14T06:28:58.519Z,10.13
2022-09-14T06:31:25.972Z,11.18
2022-09-14T06:33:53.633Z,12.45
2022-09-14T06:36:27.664Z,11.20
2022-09-14T06:38:56.185Z,11.10
2022-09-14T06:41:29.049Z,10.13
2022-09-14T06:43:59.479Z,10.60
2022-09-14T06:46:32.236Z,8.77
2022-09-14T06:49:08.216Z,13.90
2022-09-14T06:51:42.849Z,12.45
2022-09-14T06:54:13.884Z,17.17
2022-09-14T06:56:44.240Z,9.82
2022-09-14T06:59:15.678Z,8.80
2022-09-14T07:01:45.578Z,9.45
2022-09-14T07:04:14.288Z,9.68
2022-09-14T07:06:50.012Z,18.25
2022-09-14T07:09:19.948Z,17.75
2022-09-14T07:11:47.597Z,7.72
2022-09-14T07:14:16.583Z,8.35
2022-09-14T07:16:44.069Z,8.65
2022-09-14T07:19:14.285Z,8.43
2022-09-14T07:21:42.959Z,6.53
2022-09-14T07:24:14.792Z,8.57
2022-09-14T07:26:43.064Z,6.78
2022-09-14T07:29:19.091Z,10.57
2022-09-14T07:31:53.765Z,12.10
2022-09-14T07:34:21.797Z,14.13
2022-09-14T07:36:49.014Z,16.73
2022-09-14T07:39:17.976Z,15.82
2022-09-14T07:41:45.557Z,15.38
2022-09-14T07:44:17.636Z,15.10
2022-09-14T07:46:46.718Z,19.33
2022-09-14T07:49:15.822Z,15.18
2022-09-14T07:51:43.909Z,17.95
2022-09-14T07:54:15.254Z,17.33
2022-09-14T07:56:43.586Z,22.27
2022-09-14T07:59:34.926Z,14.18
2022-09-14T08:02:02.919Z,15.43
2022-09-14T08:04:30.295Z,14.35
2022-09-14T08:06:57.889Z,18.02
2022-09-14T08:09:25.851Z,14.05
2022-09-14T08:11:53.112Z,15.30
2022-09-14T08:14:20.638Z,14.15
2022-09-14T08:16:47.976Z,12.55
2022-09-14T08:19:20.306Z,13.60
2022-09-14T08:21:48.399Z,12.82
2022-09-14T08:24:20.095Z,12.65
2022-09-14T08:26:48.756Z,10.77
2022-09-14T08:29:18.769Z,13.63
2022-09-14T08:31:47.328Z,10.90
2022-09-14T08:34:17.237Z,13.63
2022-09-14T08:36:47.174Z,6.63
2022-09-14T08:39:16.539Z,13.35
2022-09-14T08:41:43.563Z,13.90
2022-09-14T08:44:43.314Z,11.68
2022-09-14T08:47:36.677Z,10.15
2022-09-14T08:50:14.507Z,15.63
2022-09-14T08:52:47.795Z,16.00
2022-09-14T08:55:35.721Z,12.77
2022-09-14T08:58:53.879Z,10.43
2022-09-14T09:01:48.671Z,11.70
2022-09-14T09:04:39.964Z,14.57
2022-09-14T09:07:26.607Z,8.82
2022-09-14T09:09:57.934Z,12.60
2022-09-14T09:12:57.381Z,11.63
2022-09-14T09:15:45.093Z,8.02
2022-09-14T09:19:00.266Z,12.63
2022-09-14T09:21:48.225Z,14.02
2022-09-14T09:24:42.047Z,10.57
2022-09-14T09:27:15.937Z,13.65
2022-09-14T09:29:43.667Z,10.10
2022-09-14T09:32:25.826Z,12.88
2022-09-14T09:35:22.553Z,13.05
2022-09-14T09:37:59.370Z,11.82
2022-09-14T09:40:35.894Z,12.80
2022-09-14T09:43:24.262Z,14.00
2022-09-14T09:46:06.978Z,10.73
2022-09-14T09:48:44.282Z,13.80
2022-09-14T09:51:33.453Z,15.35
2022-09-14T09:54:12.526Z,12.15
2022-09-14T09:57:31.052Z,12.13
2022-09-14T10:00:14.155Z,11.52
2022-09-14T10:02:42.064Z,15.95
2022-09-14T10:05:09.152Z,12.52
2022-09-14T10:08:01.035Z,9.93
2022-09-14T10:10:40.093Z,10.68
2022-09-14T10:13:28.974Z,8.50
2022-09-14T10:16:18.797Z,13.07
2022-09-14T10:18:52.883Z,8.95
2022-09-14T10:21:24.289Z,13.00
2022-09-14T10:24:21.968Z,17.58
2022-09-14T10:26:49.238Z,11.20
2022-09-14T10:29:35.713Z,11.30
2022-09-14T10:32:22.247Z,10.93
2022-09-14T10:34:51.109Z,12.88
2022-09-14T10:37:43.633Z,15.60
2022-09-14T10:40:19.051Z,13.38
2022-09-14T10:43:23.113Z,15.10
2022-09-14T10:46:02.752Z,14.63
2022-09-14T10:49:33.583Z,14.88
2022-09-14T10:53:05.385Z,17.42
2022-09-14T10:55:50.369Z,12.98
2022-09-14T10:58:35.680Z,16.38
2022-09-14T11:02:04.737Z,11.68
2022-09-14T11:05:12.388Z,8.90
2022-09-14T11:08:00.096Z,9.70
2022-09-14T11:10:45.343Z,15.07
2022-09-14T11:13:52.472Z,10.32
2022-09-14T11:16:47.892Z,12.25
2022-09-14T11:19:57.395Z,9.52
2022-09-14T11:22:55.367Z,11.60
2022-09-14T11:25:46.977Z,9.15
2022-09-14T11:28:31.547Z,8.05
2022-09-14T11:31:26.388Z,9.27
2022-09-14T11:34:16.993Z,9.85
2022-09-14T11:37:00.280Z,7.28
2022-09-14T11:39:39.013Z,11.52
2022-09-14T11:42:25.685Z,7.70
2022-09-14T11:45:05.656Z,7.40
2022-09-14T11:47:44.578Z,6.63
2022-09-14T11:50:25.815Z,10.57
2022-09-14T11:53:14.809Z,6.78
2022-09-14T11:55:49.794Z,10.75
2022-09-14T12:01:21.577Z,7.93
2022-09-14T12:03:59.739Z,13.15
2022-09-14T12:06:36.079Z,7.05
2022-09-14T12:09:20.851Z,6.18
2022-09-14T12:11:55.432Z,7.88
2022-09-14T12:14:28.733Z,7.30
2022-09-14T12:17:38.719Z,7.75
2022-09-14T12:20:44.898Z,9.27
2022-09-14T12:23:38.741Z,8.65
2022-09-14T12:26:12.179Z,10.25
2022-09-14T12:28:50.493Z,7.05
2022-09-14T12:31:56.177Z,15.52
2022-09-14T12:34:31.914Z,10.55
2022-09-14T12:37:31.976Z,8.25
2022-09-14T12:40:20.837Z,12.32
2022-09-14T12:42:48.144Z,6.93
2022-09-14T12:46:03.453Z,6.72
2022-09-14T12:49:24.144Z,5.18
2022-09-14T12:51:52.116Z,7.93
2022-09-14T12:55:05.263Z,7.30
2022-09-14T12:58:10.718Z,4.05
2022-09-14T13:01:18.185Z,4.88
2022-09-14T13:03:54.988Z,5.55
2022-09-14T13:06:30.451Z,5.88
2022-09-14T13:08:59.488Z,8.32
2022-09-14T13:11:41.226Z,10.50
2022-09-14T13:14:18.700Z,6.25
2022-09-14T13:16:50.269Z,5.65
2022-09-14T13:19:30.452Z,7.13
2022-09-14T13:22:01.986Z,9.15
2022-09-14T13:24:47.037Z,4.75
2022-09-14T13:27:36.302Z,7.43
2022-09-14T13:30:22.802Z,5.65
2022-09-14T13:32:54.717Z,12.20
2022-09-14T13:35:46.822Z,4.80
2022-09-14T13:38:23.888Z,6.60
2022-09-14T13:40:55.306Z,7.65
2022-09-14T13:43:23.411Z,12.38
2022-09-14T13:45:52.385Z,12.02
2022-09-14T13:48:21.078Z,6.40
2022-09-14T13:50:51.940Z,7.40
2022-09-14T13:53:51.180Z,11.23
2022-09-14T13:56:32.483Z,6.13
2022-09-14T13:59:09.084Z,6.35
2022-09-14T14:02:12.919Z,6.63
2022-09-14T14:04:40.197Z,5.55
2022-09-14T14:07:31.301Z,4.55
2022-09-14T14:10:00.181Z,9.60
2022-09-14T14:12:39.536Z,4.13
2022-09-14T14:15:26.744Z,5.95
2022-09-14T14:17:54.917Z,6.18
2022-09-14T14:20:32.035Z,8.70
2022-09-14T14:23:11.412Z,4.97
2022-09-14T14:25:52.186Z,7.20
2022-09-14T14:28:31.965Z,5.28
2022-09-14T14:31:09.866Z,6.18
2022-09-14T14:33:51.377Z,7.13
2022-09-14T14:36:19.314Z,5.43
2022-09-14T14:38:47.966Z,6.57
2022-09-14T14:41:20.759Z,6.05
2022-09-14T14:43:50.819Z,7.70
2022-09-14T14:46:18.336Z,6.47
2022-09-14T14:48:45.634Z,8.90
2022-09-14T14:51:15.124Z,6.07
2022-09-14T14:53:43.246Z,7.13
2022-09-14T14:56:13.030Z,7.63
2022-09-14T14:58:47.081Z,6.05
2022-09-14T15:01:14.699Z,7.23
2022-09-14T15:03:42.104Z,7.70
2022-09-14T15:06:27.881Z,6.57
2022-09-14T15:08:56.642Z,4.55
2022-09-14T15:11:24.062Z,4.72
2022-09-14T15:13:51.329Z,8.07
2022-09-14T15:16:18.862Z,4.93
2022-09-14T15:18:46.166Z,7.70
2022-09-14T15:21:13.432Z,8.70
2022-09-14T15:23:40.762Z,8.30
2022-09-14T15:26:08.254Z,6.53
2022-09-14T15:28:38.513Z,8.68
2022-09-14T15:31:08.035Z,11.32
2022-09-14T15:33:35.450Z,9.18
2022-09-14T15:36:03.384Z,9.65
2022-09-14T15:38:30.738Z,8.50
2022-09-14T15:40:57.973Z,13.30
2022-09-14T15:43:25.149Z,13.60
2022-09-14T15:45:52.520Z,13.15
2022-09-14T15:48:20.052Z,9.00
2022-09-14T15:50:48.754Z,10.75
2022-09-14T15:53:18.341Z,12.02
2022-09-14T15:55:45.991Z,6.85
2022-09-14T15:58:13.569Z,15.07
2022-09-14T16:00:45.054Z,11.15
2022-09-14T16:03:12.902Z,8.27
2022-09-14T16:05:40.288Z,15.38
2022-09-14T16:08:07.726Z,13.65
2022-09-14T16:10:34.958Z,8.60
2022-09-14T16:13:02.326Z,11.82
2022-09-14T16:15:29.561Z,12.18
2022-09-14T16:17:56.903Z,12.20
2022-09-14T16:20:24.421Z,14.55
2022-09-14T16:22:51.765Z,9.18
2022-09-14T16:25:19.034Z,11.52
2022-09-14T16:27:46.314Z,13.25
2022-09-14T16:30:13.636Z,10.40
2022-09-14T16:32:40.834Z,14.27
2022-09-14T16:35:08.627Z,15.68
2022-09-14T16:37:35.992Z,14.88
2022-09-14T16:40:04.501Z,9.95
2022-09-14T16:42:31.707Z,12.20
2022-09-14T16:44:58.968Z,17.02
2022-09-14T16:47:26.320Z,14.50
2022-09-14T16:49:53.781Z,13.32
2022-09-14T16:52:21.013Z,18.13
2022-09-14T16:54:48.185Z,9.85
2022-09-14T16:57:15.481Z,10.63
2022-09-14T16:59:42.888Z,14.43
2022-09-14T17:02:11.683Z,12.07
2022-09-14T17:04:38.932Z,14.52
2022-09-14T17:07:06.229Z,12.52
2022-09-14T17:09:34.224Z,13.93
2022-09-14T17:12:01.665Z,22.13
2022-09-14T17:14:33.440Z,11.88
2022-09-14T17:17:00.816Z,16.20
2022-09-14T17:19:28.618Z,16.58
2022-09-14T17:21:55.976Z,16.60
2022-09-14T17:24:24.067Z,17.52
2022-09-14T17:26:51.278Z,20.25
2022-09-14T17:29:18.652Z,14.85
2022-09-14T17:31:46.513Z,18.73
2022-09-14T17:34:16.803Z,20.60
2022-09-14T17:36:45.518Z,12.15
2022-09-14T17:39:15.285Z,15.93
2022-09-14T17:41:43.885Z,25.40
2022-09-14T17:44:14.758Z,16.42
2022-09-14T17:46:51.634Z,16.63
2022-09-14T17:49:22.173Z,17.67
2022-09-14T17:51:50.909Z,17.60
2022-09-14T17:54:19.495Z,20.67
2022-09-14T17:56:47.238Z,16.33
2022-09-14T17:59:20.387Z,15.05
2022-09-14T18:01:50.065Z,16.02
2022-09-14T18:04:18.307Z,21.63
2022-09-14T18:06:49.882Z,15.95
2022-09-14T18:09:22.499Z,19.30
2022-09-14T18:11:50.797Z,16.67
2022-09-14T18:14:19.342Z,15.18
2022-09-14T18:16:46.824Z,23.40
2022-09-14T18:19:15.347Z,13.73
2022-09-14T18:21:43.361Z,19.48
2022-09-14T18:24:12.154Z,19.17
2022-09-14T18:26:39.375Z,20.40
2022-09-14T18:29:07.384Z,19.50
2022-09-14T18:31:34.622Z,17.60
2022-09-14T18:34:02.457Z,23.35
2022-09-14T18:36:30.517Z,13.20
2022-09-14T18:38:58.770Z,19.52
2022-09-14T18:41:31.284Z,20.13
2022-09-14T18:43:59.115Z,23.95
2022-09-14T18:46:28.588Z,18.27
2022-09-14T18:49:00.926Z,21.20
2022-09-14T18:51:31.833Z,21.98
2022-09-14T18:54:04.355Z,15.82
2022-09-14T18:56:33.292Z,22.85
2022-09-14T18:59:03.345Z,19.38
2022-09-14T19:01:32.653Z,15.40
2022-09-14T19:04:06.570Z,18.60
2022-09-14T19:06:38.668Z,16.17
2022-09-14T19:09:08.787Z,25.45
2022-09-14T19:11:39.497Z,24.07
2022-09-14T19:14:12.853Z,14.60
2022-09-14T19:16:42.772Z,21.48
2022-09-14T19:19:23.202Z,14.77
2022-09-14T19:22:02.349Z,15.57
2022-09-14T19:24:41.402Z,18.63
2022-09-14T19:27:15.289Z,22.42
2022-09-14T19:29:55.234Z,14.90
2022-09-14T19:32:37.458Z,17.65
2022-09-14T19:35:09.866Z,17.15
2022-09-14T19:38:00.729Z,20.30
2022-09-14T19:40:35.453Z,19.88
2022-09-14T19:46:26.432Z,20.90
2022-09-14T19:49:05.828Z,18.88
2022-09-14T19:51:48.983Z,19.58
2022-09-14T19:54:21.796Z,20.25
2022-09-14T19:56:55.610Z,17.98
2022-09-14T19:59:23.303Z,21.05
2022-09-14T20:01:50.981Z,20.92
2022-09-14T20:04:22.930Z,19.88
2022-09-14T20:07:08.472Z,21.35
2022-09-14T20:09:46.685Z,22.50
2022-09-14T20:12:18.936Z,20.77
2022-09-14T20:14:57.941Z,20.02
2022-09-14T20:17:37.422Z,21.10
2022-09-14T20:20:11.692Z,24.92
2022-09-14T20:22:50.331Z,21.90
2022-09-14T20:25:26.862Z,20.23
2022-09-14T20:30:42.792Z,17.27
2022-09-14T20:33:18.587Z,24.10
2022-09-14T20:36:16.713Z,19.60
2022-09-14T20:38:56.017Z,27.95
2022-09-14T20:41:47.414Z,20.88
2022-09-14T20:44:25.422Z,21.30
2022-09-14T20:47:10.234Z,19.08
2022-09-14T20:49:49.226Z,20.38
2022-09-14T20:52:26.130Z,22.25
2022-09-14T20:55:05.590Z,18.25
2022-09-14T20:57:34.219Z,19.15
2022-09-14T21:00:01.475Z,17.40
2022-09-14T21:02:32.622Z,15.07
2022-09-14T21:05:00.072Z,17.88
2022-09-14T21:07:27.334Z,15.38
2022-09-14T21:09:54.678Z,12.25
2022-09-14T21:12:22.028Z,21.05
2022-09-14T21:14:49.287Z,17.75
2022-09-14T21:17:17.584Z,13.55
2022-09-14T21:19:44.844Z,16.55
2022-09-14T21:22:12.050Z,16.38
2022-09-14T21:24:39.347Z,15.68
2022-09-14T21:27:07.648Z,17.27
2022-09-14T21:29:34.797Z,19.95
2022-09-14T21:32:06.838Z,13.45
2022-09-14T21:34:35.980Z,21.73
2022-09-14T21:37:03.117Z,18.85
2022-09-14T21:39:30.249Z,20.75
2022-09-14T21:41:59.675Z,18.30
2022-09-14T21:44:37.778Z,18.45
2022-09-14T21:47:05.516Z,17.10
2022-09-14T21:49:32.897Z,16.00
2022-09-14T21:52:00.188Z,16.05
2022-09-14T21:54:27.913Z,14.93
2022-09-14T21:56:55.125Z,19.13
2022-09-14T21:59:23.820Z,16.98
2022-09-14T22:01:51.467Z,16.25
2022-09-14T22:04:24.093Z,15.48
2022-09-14T22:06:53.094Z,18.17
2022-09-14T22:09:25.059Z,16.88
2022-09-14T22:11:53.270Z,17.98
2022-09-14T22:14:28.066Z,19.40
2022-09-14T22:16:56.127Z,15.63
2022-09-14T22:19:32.063Z,16.98
2022-09-14T22:21:59.700Z,18.92
2022-09-14T22:24:37.114Z,19.25
2022-09-14T22:27:08.808Z,18.17
2022-09-14T22:29:40.913Z,18.73
2022-09-14T22:32:11.844Z,20.63
2022-09-14T22:34:41.438Z,21.67
2022-09-14T22:37:08.954Z,23.13
2022-09-14T22:39:36.510Z,21.35
2022-09-14T22:42:04.048Z,25.85
2022-09-14T22:44:31.529Z,19.20
2022-09-14T22:46:58.866Z,23.52
2022-09-14T22:49:26.062Z,21.13
2022-09-14T22:51:53.291Z,20.55
2022-09-14T22:54:20.532Z,15.80
2022-09-14T22:56:47.722Z,13.80
2022-09-14T22:59:14.945Z,17.27
2022-09-14T23:01:42.584Z,11.75
2022-09-14T23:04:13.585Z,11.05
2022-09-14T23:06:48.240Z,11.13
2022-09-14T23:09:22.121Z,9.98
2022-09-14T23:11:50.390Z,12.00
2022-09-14T23:14:17.806Z,11.02
2022-09-14T23:16:45.672Z,10.82
2022-09-14T23:19:17.341Z,8.48
2022-09-14T23:21:45.636Z,17.05
2022-09-14T23:24:13.548Z,10.05
2022-09-14T23:26:41.756Z,10.65
2022-09-14T23:29:16.246Z,11.30
2022-09-14T23:31:44.265Z,8.53
2022-09-14T23:34:11.565Z,15.38
2022-09-14T23:36:38.755Z,13.65
2022-09-14T23:39:06.021Z,11.93
2022-09-14T23:41:33.377Z,9.95
2022-09-14T23:44:00.819Z,16.23
2022-09-14T23:46:28.267Z,10.98
2022-09-14T23:48:55.519Z,11.63
2022-09-14T23:51:24.540Z,13.77
2022-09-14T23:53:51.705Z,17.17
2022-09-14T23:56:18.997Z,13.95
2022-09-14T23:58:46.500Z,12.70
